Time;durP1;ratioP1;P1;durP2;ratioP2;P2;SDS_P1;SDS_P2;PMS_P1;PMS_P2;Temp;Humidity;BMP_temperature;BMP_pressure;BME280_temperature;BME280_humidity;BME280_pressure;Samples;Min_cycle;Max_cycle;Signal;HPM_P1;HPM_P2
2022/03/06 00:01:39;;;;;;;42.80;28.30;;;;;;;0.82;52.53;101283.71;111164;1242;21958;-76
2022/03/06 00:04:08;;;;;;;38.60;26.70;;;;;;;0.83;52.49;101286.92;111766;1242;23599;-77
2022/03/06 00:06:37;;;;;;;41.90;29.50;;;;;;;0.83;52.41;101286.27;111744;1239;21933;-77
2022/03/06 00:09:05;;;;;;;43.90;30.50;;;;;;;0.82;52.41;101288.92;112076;1238;23689;-77
2022/03/06 00:11:33;;;;;;;38.90;27.80;;;;;;;0.81;52.41;101286.72;112293;1238;21974;-77
2022/03/06 00:14:01;;;;;;;49.30;31.00;;;;;;;0.78;52.43;101283.23;112302;1230;21914;-76
2022/03/06 00:16:29;;;;;;;48.10;31.60;;;;;;;0.77;52.38;101284.31;112241;1235;23670;-76
2022/03/06 00:18:57;;;;;;;51.80;33.40;;;;;;;0.77;52.43;101283.84;111976;1238;23781;-76
2022/03/06 00:21:29;;;;;;;55.60;32.20;;;;;;;0.75;52.47;101280.45;111796;1238;21950;-76
2022/03/06 00:23:59;;;;;;;60.20;34.70;;;;;;;0.74;52.41;101283.63;111475;1244;21957;-76
2022/03/06 00:26:27;;;;;;;61.20;35.40;;;;;;;0.73;52.53;101284.56;111049;1248;23785;-76
2022/03/06 00:28:55;;;;;;;57.00;35.50;;;;;;;0.75;52.57;101285.33;110932;1250;23064;-76
2022/03/06 00:31:23;;;;;;;50.60;33.00;;;;;;;0.76;52.56;101287.00;111021;1249;21982;-77
2022/03/06 00:33:57;;;;;;;50.20;32.80;;;;;;;0.76;52.47;101285.27;110923;1250;21990;-77
2022/03/06 00:36:29;;;;;;;49.00;32.70;;;;;;;0.76;52.58;101283.87;110956;1245;22411;-77
2022/03/06 00:38:57;;;;;;;54.70;35.70;;;;;;;0.76;52.63;101286.65;111456;1245;23075;-77
2022/03/06 00:41:30;;;;;;;53.50;38.00;;;;;;;0.75;52.63;101284.30;111525;1239;21961;-76
2022/03/06 00:44:08;;;;;;;60.00;39.80;;;;;;;0.73;52.63;101283.18;111615;1242;23750;-77
2022/03/06 00:46:42;;;;;;;52.60;37.80;;;;;;;0.72;52.68;101285.46;111517;1244;23598;-76
2022/03/06 00:49:11;;;;;;;53.70;38.20;;;;;;;0.72;52.67;101283.55;111592;1244;23093;-76
2022/03/06 00:51:44;;;;;;;50.70;39.00;;;;;;;0.72;52.76;101285.46;111829;1238;23598;-76
2022/03/06 00:54:18;;;;;;;51.50;38.40;;;;;;;0.72;52.69;101285.66;111957;1235;21971;-77
2022/03/06 00:56:48;;;;;;;56.40;38.90;;;;;;;0.72;52.77;101283.92;112325;1236;23698;-76
2022/03/06 00:59:21;;;;;;;54.40;37.90;;;;;;;0.71;52.80;101278.93;112262;1235;22065;-77
2022/03/06 01:01:49;;;;;;;48.30;36.40;;;;;;;0.69;52.75;101277.11;112558;1230;23654;-76
2022/03/06 01:04:21;;;;;;;51.80;35.40;;;;;;;0.68;52.79;101273.88;112207;1236;21964;-77
2022/03/06 01:06:48;;;;;;;51.50;36.20;;;;;;;0.66;52.89;101271.05;112316;1238;21955;-77
2022/03/06 01:09:18;;;;;;;49.80;36.70;;;;;;;0.65;52.91;101271.11;112413;1235;21975;-77
2022/03/06 01:11:46;;;;;;;65.90;43.10;;;;;;;0.63;52.89;101271.02;112265;1236;23071;-77
2022/03/06 01:14:14;;;;;;;63.20;41.40;;;;;;;0.61;52.86;101271.66;112333;1237;23620;-76
2022/03/06 01:16:42;;;;;;;71.50;47.10;;;;;;;0.60;52.91;101272.92;112375;1236;21963;-77
2022/03/06 01:19:11;;;;;;;71.20;48.30;;;;;;;0.61;53.08;101274.45;111470;1244;23557;-77
2022/03/06 01:21:39;;;;;;;74.80;49.20;;;;;;;0.63;53.16;101274.17;111718;1239;22008;-77
2022/03/06 01:24:10;;;;;;;72.20;47.70;;;;;;;0.64;53.21;101273.55;112141;1238;22048;-76
2022/03/06 01:26:40;;;;;;;66.00;43.90;;;;;;;0.66;53.22;101271.91;112170;1237;21979;-76
2022/03/06 01:29:08;;;;;;;51.10;33.00;;;;;;;0.65;53.07;101269.88;112192;1238;24373;-77
2022/03/06 01:31:38;;;;;;;46.90;30.40;;;;;;;0.58;52.94;101268.33;112149;1238;21965;-77
2022/03/06 01:34:07;;;;;;;44.40;30.30;;;;;;;0.57;53.19;101268.25;112054;1236;21950;-76
2022/03/06 01:36:37;;;;;;;55.70;35.00;;;;;;;0.58;53.29;101268.21;112343;1232;22793;-77
2022/03/06 01:39:08;;;;;;;39.10;27.40;;;;;;;0.59;53.23;101268.31;112763;1235;23593;-76
2022/03/06 01:41:37;;;;;;;34.80;25.70;;;;;;;0.58;53.04;101266.29;111826;1239;21983;-76
2022/03/06 01:44:20;;;;;;;40.60;27.10;;;;;;;0.57;52.99;101266.52;111514;1241;22754;-76
2022/03/06 01:46:48;;;;;;;39.20;28.70;;;;;;;0.58;52.98;101265.39;111466;1244;21970;-77
2022/03/06 01:49:19;;;;;;;43.40;30.20;;;;;;;0.58;52.89;101261.92;111211;1244;22043;-77
2022/03/06 01:51:48;;;;;;;47.00;32.00;;;;;;;0.58;52.80;101262.30;111477;1244;22732;-77
2022/03/06 01:54:19;;;;;;;41.60;28.20;;;;;;;0.59;52.83;101262.26;111338;1248;22003;-77
2022/03/06 01:56:53;;;;;;;47.50;31.50;;;;;;;0.59;52.81;101259.98;111160;1244;22005;-77
2022/03/06 01:59:24;;;;;;;62.50;36.40;;;;;;;0.59;52.74;101261.23;111170;1245;21970;-77
2022/03/06 02:01:56;;;;;;;73.90;41.40;;;;;;;0.59;52.78;101261.73;111581;1244;22056;-78
2022/03/06 02:04:24;;;;;;;86.40;46.10;;;;;;;0.59;52.78;101259.77;111567;1239;21956;-78
2022/03/06 02:06:52;;;;;;;102.80;50.00;;;;;;;0.61;52.80;101258.85;111901;1239;23813;-78
2022/03/06 02:09:23;;;;;;;86.00;45.70;;;;;;;0.62;52.92;101255.67;111790;1238;22001;-78
2022/03/06 02:12:55;;;;;;;81.00;43.20;;;;;;;0.63;52.89;101259.27;111791;1241;22237;-77
2022/03/06 02:14:54;;;;;;;58.80;36.40;;;;;;;0.60;52.92;101255.76;111650;1241;23571;-77
2022/03/06 02:17:27;;;;;;;59.30;35.40;;;;;;;0.59;52.96;101251.65;112065;1235;21957;-76
2022/03/06 02:19:59;;;;;;;54.90;35.50;;;;;;;0.59;52.99;101251.16;112156;1235;23595;-76
2022/03/06 02:22:35;;;;;;;51.90;32.70;;;;;;;0.57;53.01;101251.92;112103;1238;22750;-77
2022/03/06 02:25:10;;;;;;;56.60;33.90;;;;;;;0.57;53.12;101252.09;111232;1247;21971;-77
2022/03/06 02:27:38;;;;;;;44.90;30.80;;;;;;;0.56;53.17;101250.59;111502;1245;21970;-77
2022/03/06 02:30:09;;;;;;;35.40;24.10;;;;;;;0.57;53.27;101247.44;111458;1244;22748;-76
2022/03/06 02:32:39;;;;;;;36.50;25.60;;;;;;;0.57;53.24;101247.07;111298;1244;23693;-77
2022/03/06 02:35:11;;;;;;;37.80;26.50;;;;;;;0.58;53.12;101246.02;111171;1247;21961;-76
2022/03/06 02:37:39;;;;;;;39.50;27.70;;;;;;;0.57;53.12;101244.98;110629;1254;21999;-76
2022/03/06 02:40:10;;;;;;;39.20;26.80;;;;;;;0.56;52.92;101248.02;110592;1250;23677;-76
2022/03/06 02:42:44;;;;;;;41.40;28.20;;;;;;;0.55;52.98;101247.91;111019;1244;21989;-77
2022/03/06 02:45:19;;;;;;;36.40;27.60;;;;;;;0.54;52.96;101243.63;111653;1241;23824;-76
2022/03/06 02:47:49;;;;;;;40.20;29.20;;;;;;;0.54;52.97;101243.26;111539;1242;22025;-77
2022/03/06 02:50:29;;;;;;;40.90;30.50;;;;;;;0.56;53.04;101242.98;111913;1241;21965;-76
2022/03/06 02:52:59;;;;;;;42.80;31.10;;;;;;;0.57;53.10;101241.02;111815;1238;22022;-77
2022/03/06 02:55:27;;;;;;;43.10;30.60;;;;;;;0.57;53.14;101244.48;111971;1235;21955;-76
2022/03/06 02:58:00;;;;;;;43.60;29.70;;;;;;;0.58;53.20;101247.91;112778;1235;22410;-77
2022/03/06 03:00:29;;;;;;;45.20;30.40;;;;;;;0.58;53.25;101244.23;112441;1235;23568;-76
2022/03/06 03:03:06;;;;;;;44.40;30.80;;;;;;;0.58;53.33;101247.04;112418;1235;23185;-76
2022/03/06 03:05:34;;;;;;;49.70;30.60;;;;;;;0.58;53.32;101248.91;112722;1235;21967;-76
2022/03/06 03:08:02;;;;;;;38.80;28.10;;;;;;;0.59;53.41;101250.09;112489;1235;21961;-76
2022/03/06 03:10:30;;;;;;;41.90;28.50;;;;;;;0.58;53.42;101248.95;112360;1235;21965;-76
2022/03/06 03:12:58;;;;;;;45.80;28.40;;;;;;;0.57;53.26;101249.02;112423;1230;21981;-77
2022/03/06 03:15:32;;;;;;;45.10;29.20;;;;;;;0.55;53.37;101248.91;112889;1233;21935;-76
2022/03/06 03:18:00;;;;;;;43.90;29.00;;;;;;;0.54;53.41;101246.58;112224;1238;21958;-77
2022/03/06 03:20:31;;;;;;;41.40;26.30;;;;;;;0.53;53.55;101248.18;111563;1242;22746;-77
2022/03/06 03:23:02;;;;;;;40.10;27.40;;;;;;;0.52;53.53;101248.59;111750;1242;23046;-77
2022/03/06 03:25:30;;;;;;;32.10;25.20;;;;;;;0.50;53.53;101248.14;111797;1241;23675;-77
2022/03/06 03:28:03;;;;;;;40.60;28.40;;;;;;;0.51;53.53;101247.61;111178;1244;22426;-76
2022/03/06 03:30:31;;;;;;;42.50;28.70;;;;;;;0.51;53.52;101244.13;111178;1247;21957;-77
2022/03/06 03:32:59;;;;;;;46.50;30.90;;;;;;;0.51;53.46;101246.55;110947;1245;22169;-77
2022/03/06 03:35:27;;;;;;;39.50;28.40;;;;;;;0.51;53.40;101248.82;110875;1249;21972;-76
2022/03/06 03:37:55;;;;;;;40.20;29.10;;;;;;;0.50;53.46;101247.14;111211;1242;22296;-77
2022/03/06 03:40:24;;;;;;;41.00;29.20;;;;;;;0.49;53.53;101247.54;111651;1240;23743;-77
2022/03/06 03:42:51;;;;;;;44.90;31.50;;;;;;;0.48;53.47;101246.33;111716;1242;23602;-77
2022/03/06 03:45:19;;;;;;;41.70;29.10;;;;;;;0.47;53.51;101246.77;111535;1240;21980;-76
2022/03/06 03:47:47;;;;;;;44.00;28.50;;;;;;;0.47;53.58;101247.27;111892;1239;22212;-77
2022/03/06 03:50:16;;;;;;;44.50;29.80;;;;;;;0.46;53.65;101248.71;111977;1239;22725;-77
2022/03/06 03:52:44;;;;;;;39.30;28.00;;;;;;;0.46;53.73;101251.63;111887;1236;21977;-77
2022/03/06 03:55:12;;;;;;;40.10;26.80;;;;;;;0.46;53.78;101248.02;112282;1235;21974;-77
2022/03/06 03:57:42;;;;;;;37.30;27.90;;;;;;;0.45;53.76;101247.53;112901;1233;22451;-77
2022/03/06 04:00:13;;;;;;;39.00;27.90;;;;;;;0.44;53.76;101243.75;112434;1231;23556;-76
2022/03/06 04:02:42;;;;;;;35.30;27.20;;;;;;;0.44;53.76;101245.69;113145;1230;22252;-76
2022/03/06 04:05:24;;;;;;;36.90;25.40;;;;;;;0.43;53.69;101246.44;112785;1235;21956;-76
2022/03/06 04:08:00;;;;;;;31.90;24.20;;;;;;;0.40;53.67;101244.70;111920;1239;22484;-76
2022/03/06 04:10:28;;;;;;;30.80;24.10;;;;;;;0.38;53.64;101250.33;111863;1239;23705;-77
2022/03/06 04:12:56;;;;;;;30.50;24.00;;;;;;;0.38;53.68;101252.07;111868;1238;21961;-76
2022/03/06 04:15:27;;;;;;;34.50;28.70;;;;;;;0.40;53.64;101253.20;111966;1238;21956;-76
2022/03/06 04:17:56;;;;;;;28.20;23.00;;;;;;;0.41;53.50;101250.67;111491;1244;21935;-76
2022/03/06 04:20:27;;;;;;;30.70;24.60;;;;;;;0.42;53.31;101249.60;111661;1242;24460;-76
2022/03/06 04:23:01;;;;;;;26.00;21.90;;;;;;;0.42;53.12;101249.62;110998;1247;21970;-77
2022/03/06 04:25:40;;;;;;;28.30;22.10;;;;;;;0.39;53.03;101248.37;111247;1242;23747;-76
2022/03/06 04:28:27;;;;;;;33.30;26.30;;;;;;;0.36;52.89;101251.99;111194;1247;23043;-77
2022/03/06 04:31:10;;;;;;;;;;;;;;;;;;;;;
2022/03/06 04:33:42;;;;;;;38.40;25.70;;;;;;;0.33;52.86;101249.90;111174;1247;21951;-77
2022/03/06 04:36:37;;;;;;;31.70;24.10;;;;;;;0.33;52.91;101248.36;111435;1244;22735;-77
2022/03/06 04:39:19;;;;;;;24.80;19.40;;;;;;;0.34;52.92;101250.20;111125;1247;24313;-76
2022/03/06 04:41:52;;;;;;;28.90;21.40;;;;;;;0.34;52.81;101248.98;111505;1241;21982;-76
2022/03/06 04:44:26;;;;;;;30.40;22.20;;;;;;;0.33;52.76;101249.23;111777;1241;23125;-76
2022/03/06 04:47:06;;;;;;;30.40;22.50;;;;;;;0.32;52.66;101248.58;112438;1236;21991;-76
2022/03/06 04:49:46;;;;;;;26.40;21.50;;;;;;;0.30;52.66;101248.00;112191;1236;22031;-76
2022/03/06 04:52:15;;;;;;;34.50;21.70;;;;;;;0.28;52.66;101248.27;112787;1236;22635;-76
2022/03/06 04:55:01;;;;;;;31.00;22.90;;;;;;;0.26;52.59;101245.41;112212;1236;22013;-76
2022/03/06 04:57:53;;;;;;;26.00;20.80;;;;;;;0.22;52.66;101248.56;112837;1233;23721;-76
2022/03/06 05:00:33;;;;;;;31.60;22.10;;;;;;;0.20;52.69;101250.07;113039;1232;21952;-76
2022/03/06 05:03:09;;;;;;;24.80;20.20;;;;;;;0.17;52.60;101249.14;112271;1235;23553;-77
2022/03/06 05:05:53;;;;;;;25.90;20.10;;;;;;;0.17;52.78;101252.27;112345;1236;23737;-77
2022/03/06 05:08:35;;;;;;;28.60;21.90;;;;;;;0.17;52.85;101251.42;112297;1236;22015;-77
2022/03/06 05:11:11;;;;;;;27.20;21.10;;;;;;;0.17;52.68;101253.52;112237;1236;22222;-77
2022/03/06 05:13:57;;;;;;;27.60;21.70;;;;;;;0.15;52.61;101254.31;111929;1239;22302;-76
2022/03/06 05:16:40;;;;;;;28.20;21.90;;;;;;;0.14;52.65;101254.71;111826;1238;22568;-76
2022/03/06 05:19:16;;;;;;;29.20;24.00;;;;;;;0.13;52.68;101257.02;111904;1238;21970;-75
2022/03/06 05:21:50;;;;;;;28.90;22.80;;;;;;;0.13;52.64;101255.64;112460;1235;24474;-76
2022/03/06 05:24:37;;;;;;;31.50;24.40;;;;;;;0.13;52.55;101256.66;112466;1235;22009;-75
2022/03/06 05:27:21;;;;;;;37.70;29.90;;;;;;;0.14;52.60;101254.70;112851;1235;23046;-76
2022/03/06 05:29:56;;;;;;;32.80;26.20;;;;;;;0.15;52.62;101250.69;112550;1235;21969;-76
2022/03/06 05:32:38;;;;;;;32.20;24.60;;;;;;;0.15;52.63;101250.64;112713;1230;23556;-76
2022/03/06 05:35:18;;;;;;;33.70;25.70;;;;;;;0.17;52.63;101251.60;112327;1235;23044;-76
2022/03/06 05:37:57;;;;;;;35.90;27.50;;;;;;;0.17;52.59;101251.58;112165;1235;22327;-77
2022/03/06 05:40:50;;;;;;;38.20;27.20;;;;;;;0.19;52.61;101253.23;112568;1235;21991;-76
2022/03/06 05:43:26;;;;;;;35.80;26.70;;;;;;;0.19;52.57;101253.38;112297;1234;22327;-77
2022/03/06 05:46:00;;;;;;;35.40;27.00;;;;;;;0.20;52.55;101255.05;112226;1235;23678;-76
2022/03/06 05:48:31;;;;;;;35.20;26.80;;;;;;;0.20;52.51;101253.84;112795;1235;22982;-76
2022/03/06 05:51:12;;;;;;;32.40;26.40;;;;;;;0.19;52.42;101253.73;111766;1242;23022;-77
2022/03/06 05:53:43;;;;;;;31.70;24.00;;;;;;;0.16;52.21;101254.94;111839;1238;23983;-77
2022/03/06 05:56:24;;;;;;;28.70;23.70;;;;;;;0.12;52.25;101255.65;111966;1238;21967;-77
2022/03/06 05:59:06;;;;;;;30.20;23.70;;;;;;;0.11;52.23;101257.25;111499;1244;21957;-78
2022/03/06 06:02:02;;;;;;;25.90;23.20;;;;;;;0.13;52.12;101257.73;111246;1247;23097;-78
2022/03/06 06:04:38;;;;;;;25.90;23.20;;;;;;;0.11;52.08;101257.13;110920;1250;22316;-77
2022/03/06 06:07:14;;;;;;;25.80;22.50;;;;;;;0.10;52.09;101258.38;110967;1248;23038;-78
2022/03/06 06:09:54;;;;;;;25.20;21.60;;;;;;;0.10;52.09;101254.91;111048;1250;21976;-78
2022/03/06 06:12:27;;;;;;;26.20;22.10;;;;;;;0.08;52.04;101253.79;110928;1247;22040;-78
2022/03/06 06:15:15;;;;;;;25.30;22.50;;;;;;;0.08;52.02;101251.05;111023;1244;22240;-78
2022/03/06 06:18:10;;;;;;;26.70;23.90;;;;;;;0.08;51.92;101250.67;111520;1242;21980;-78
2022/03/06 06:20:59;;;;;;;25.70;22.80;;;;;;;0.09;51.91;101247.19;111588;1241;22744;-79
2022/03/06 06:23:48;;;;;;;25.70;23.20;;;;;;;0.11;51.86;101246.54;111298;1242;22848;-78
2022/03/06 06:26:31;;;;;;;32.00;28.60;;;;;;;0.12;51.82;101243.20;111473;1245;24025;-78
2022/03/06 06:29:23;;;;;;;33.90;29.00;;;;;;;0.13;51.65;101249.22;111566;1241;21977;-78
2022/03/06 06:32:09;;;;;;;;;;;;;;;;;;;;;
2022/03/06 06:35:03;;;;;;;29.40;25.10;;;;;;;0.17;51.67;101249.17;112157;1238;22581;-78
2022/03/06 06:37:47;;;;;;;28.60;23.60;;;;;;;0.18;51.64;101250.99;111595;1242;22411;-77
2022/03/06 06:40:35;;;;;;;28.20;24.50;;;;;;;0.22;51.68;101253.59;111655;1242;21995;-78
2022/03/06 06:43:17;;;;;;;;;;;;;;;;;;;;;
2022/03/06 06:46:10;;;;;;;;;;;;;;;;;;;;;
2022/03/06 06:48:50;;;;;;;22.30;19.60;;;;;;;0.22;51.48;101266.25;111737;1242;22821;-78
2022/03/06 06:51:33;;;;;;;22.10;19.60;;;;;;;0.23;51.44;101261.35;110916;1251;22689;-78
2022/03/06 06:54:17;;;;;;;23.60;20.30;;;;;;;0.26;51.33;101264.48;110851;1252;21975;-79
2022/03/06 06:57:09;;;;;;;22.90;20.50;;;;;;;0.31;51.45;101263.00;111082;1248;22047;-79
2022/03/06 06:59:45;;;;;;;26.50;23.60;;;;;;;0.36;51.42;101262.03;111026;1249;21979;-78
2022/03/06 07:02:15;;;;;;;;;;;;;;;0.41;51.25;101259.02;110990;1248;22631;-78
2022/03/06 07:04:52;;;;;;;26.80;23.90;;;;;;;0.40;51.32;101260.60;110663;1253;22993;-78
2022/03/06 07:07:42;;;;;;;32.90;28.80;;;;;;;0.43;51.29;101259.77;110071;1260;22236;-79
2022/03/06 07:10:36;;;;;;;30.50;26.40;;;;;;;0.49;51.28;101261.56;110272;1255;21991;-79
2022/03/06 07:13:23;;;;;;;27.60;24.70;;;;;;;0.56;51.24;101264.16;110667;1251;21975;-79
2022/03/06 07:16:04;;;;;;;26.90;24.10;;;;;;;0.60;51.22;101265.29;110919;1248;21977;-78
2022/03/06 07:19:01;;;;;;;28.90;25.80;;;;;;;0.64;51.02;101265.75;111159;1248;22760;-78
2022/03/06 07:21:44;;;;;;;25.90;22.90;;;;;;;0.63;50.81;101262.55;111004;1247;21964;-78
2022/03/06 07:24:33;;;;;;;28.60;24.80;;;;;;;0.65;50.90;101264.19;111833;1241;23634;-79
2022/03/06 07:27:20;;;;;;;27.60;24.80;;;;;;;0.67;50.85;101266.14;111931;1238;23030;-78
2022/03/06 07:30:02;;;;;;;29.60;26.60;;;;;;;0.71;50.97;101269.08;112246;1235;23701;-78
2022/03/06 07:32:52;;;;;;;27.60;24.80;;;;;;;0.77;50.96;101268.22;111651;1241;23782;-77
2022/03/06 07:35:40;;;;;;;30.50;25.20;;;;;;;0.80;50.84;101269.07;111888;1241;22420;-79
2022/03/06 07:38:41;;;;;;;27.70;24.70;;;;;;;0.85;50.87;101270.23;111703;1245;23681;-78
2022/03/06 07:41:21;;;;;;;27.10;24.20;;;;;;;0.90;50.82;101269.07;111223;1248;21973;-78
2022/03/06 07:43:59;;;;;;;28.00;25.00;;;;;;;0.92;50.69;101268.27;110953;1251;22125;-78
2022/03/06 07:46:41;;;;;;;29.10;25.30;;;;;;;0.93;50.63;101270.12;111484;1244;22023;-78
2022/03/06 07:49:17;;;;;;;34.40;28.10;;;;;;;0.92;50.63;101271.35;111713;1244;23082;-79
2022/03/06 07:51:55;;;;;;;37.00;29.90;;;;;;;0.95;50.61;101270.03;111790;1243;24913;-79
2022/03/06 07:54:32;;;;;;;39.10;30.00;;;;;;;1.00;50.86;101269.21;111272;1247;22033;-79
2022/03/06 07:57:07;;;;;;;40.50;32.10;;;;;;;1.08;51.00;101265.16;111385;1244;22756;-79
2022/03/06 07:59:52;;;;;;;38.10;32.40;;;;;;;1.18;51.03;101267.73;112223;1235;23588;-80
2022/03/06 08:02:33;;;;;;;39.60;33.70;;;;;;;1.22;50.67;101268.73;112562;1234;22011;-79
2022/03/06 08:05:16;;;;;;;42.20;36.00;;;;;;;1.26;50.78;101271.27;112088;1241;23049;-78
2022/03/06 08:07:55;;;;;;;56.00;39.70;;;;;;;1.30;50.68;101267.55;112000;1241;23097;-78
2022/03/06 08:10:33;;;;;;;39.70;32.30;;;;;;;1.34;50.80;101269.92;111599;1241;21952;-77
2022/03/06 08:13:06;;;;;;;45.40;35.40;;;;;;;1.36;50.53;101272.95;111490;1241;23044;-78
2022/03/06 08:15:43;;;;;;;41.10;32.80;;;;;;;1.38;50.57;101268.84;111796;1240;22009;-77
2022/03/06 08:18:20;;;;;;;36.40;30.30;;;;;;;1.43;50.52;101269.61;111184;1247;21949;-77
2022/03/06 08:21:02;;;;;;;34.60;30.70;;;;;;;1.44;50.17;101267.30;111136;1248;22069;-77
2022/03/06 08:23:51;;;;;;;39.10;31.30;;;;;;;1.38;50.10;101264.30;111318;1245;21978;-76
2022/03/06 08:26:32;;;;;;;40.90;34.50;;;;;;;1.36;50.21;101261.48;111330;1244;192296;-77
2022/03/06 08:29:07;;;;;;;40.10;32.50;;;;;;;1.40;50.43;101262.99;110919;1248;21964;-77
2022/03/06 08:34:46;;;;;;;39.40;33.40;;;;;;;1.51;50.45;101261.66;111578;1241;21973;-78
2022/03/06 08:37:22;;;;;;;38.60;33.20;;;;;;;1.57;50.39;101263.61;111527;1244;21972;-78
2022/03/06 08:40:15;;;;;;;44.80;35.00;;;;;;;1.62;50.09;101264.73;111836;1241;21959;-77
2022/03/06 08:42:50;;;;;;;48.20;39.20;;;;;;;1.62;49.84;101262.29;111416;1241;22742;-78
2022/03/06 08:45:31;;;;;;;52.80;40.70;;;;;;;1.64;49.68;101257.64;111913;1238;21955;-76
2022/03/06 08:48:07;;;;;;;50.60;35.80;;;;;;;1.65;49.50;101258.13;112390;1234;21971;-76
2022/03/06 08:50:49;;;;;;;34.10;26.90;;;;;;;1.70;49.68;101258.86;112361;1235;21997;-77
2022/03/06 08:56:29;;;;;;;31.10;27.70;;;;;;;1.80;49.23;101261.74;111712;1242;22333;-78
2022/03/06 08:58:59;;;;;;;31.60;28.30;;;;;;;1.82;49.02;101263.38;111841;1241;21964;-78
2022/03/06 09:01:33;;;;;;;37.30;27.50;;;;;;;1.84;48.84;101262.05;112097;1235;21962;-76
2022/03/06 09:04:06;;;;;;;23.80;20.30;;;;;;;1.89;48.76;101260.22;112046;1241;21953;-77
2022/03/06 09:06:45;;;;;;;19.90;17.90;;;;;;;1.94;48.45;101259.02;111554;1242;22746;-77
2022/03/06 09:09:21;;;;;;;19.70;17.70;;;;;;;1.97;48.06;101258.65;111485;1243;22498;-77
2022/03/06 09:11:58;;;;;;;22.70;18.40;;;;;;;1.95;47.60;101262.30;111016;1248;22040;-77
2022/03/06 09:14:32;;;;;;;20.30;17.40;;;;;;;1.95;47.53;101262.81;111225;1247;22309;-77
2022/03/06 09:17:00;;;;;;;18.00;16.10;;;;;;;1.98;47.42;101257.95;110644;1251;21970;-78
2022/03/06 09:19:41;;;;;;;21.20;18.90;;;;;;;2.00;47.16;101259.23;110758;1253;21982;-77
2022/03/06 09:22:21;;;;;;;25.30;19.60;;;;;;;2.08;47.14;101266.90;110577;1251;21982;-77
2022/03/06 09:24:58;;;;;;;18.60;16.70;;;;;;;2.15;46.78;101270.15;110882;1248;21985;-77
2022/03/06 09:27:32;;;;;;;23.50;19.70;;;;;;;2.12;46.26;101268.72;111136;1249;22351;-79
2022/03/06 09:30:08;;;;;;;16.70;14.30;;;;;;;2.12;46.25;101268.74;111213;1242;23194;-77
2022/03/06 09:32:47;;;;;;;17.00;14.90;;;;;;;2.15;46.17;101267.90;111808;1243;23054;-75
2022/03/06 09:35:31;;;;;;;17.30;15.40;;;;;;;2.14;45.87;101263.39;112877;1231;21953;-77
2022/03/06 09:38:08;;;;;;;21.00;18.30;;;;;;;2.15;45.71;101264.20;112940;1230;22058;-76
2022/03/06 09:40:44;;;;;;;18.10;15.90;;;;;;;2.12;45.44;101262.66;112290;1238;22944;-77
2022/03/06 09:43:19;;;;;;;16.80;15.00;;;;;;;2.17;45.77;101264.09;112346;1238;22311;-77
2022/03/06 09:46:08;;;;;;;18.70;16.80;;;;;;;2.21;45.50;101262.98;112275;1237;21951;-77
2022/03/06 09:48:42;;;;;;;20.50;18.30;;;;;;;2.24;45.32;101257.79;112496;1235;22025;-77
2022/03/06 09:51:15;;;;;;;20.60;18.40;;;;;;;2.30;45.44;101256.88;111874;1241;22091;-77
2022/03/06 09:54:05;;;;;;;21.60;19.20;;;;;;;2.39;45.42;101254.96;111845;1241;23024;-80
2022/03/06 09:56:48;;;;;;;15.80;14.20;;;;;;;2.47;45.18;101255.52;111940;1241;23700;-78
2022/03/06 09:59:19;;;;;;;18.10;15.60;;;;;;;2.52;44.92;101255.89;112060;1235;23631;-79
2022/03/06 10:02:11;;;;;;;19.70;15.50;;;;;;;2.55;44.82;101256.39;112243;1238;22062;-77
2022/03/06 10:04:46;;;;;;;23.40;20.90;;;;;;;2.62;44.63;101260.19;112345;1235;21989;-77
2022/03/06 10:07:28;;;;;;;17.70;15.90;;;;;;;2.64;44.35;101260.02;112823;1238;22310;-77
2022/03/06 10:10:36;;;;;;;19.00;17.00;;;;;;;2.68;44.24;101261.02;112171;1238;21960;-78
2022/03/06 10:13:28;;;;;;;18.70;16.40;;;;;;;2.69;43.98;101261.61;112471;1235;23032;-76
2022/03/06 10:16:13;;;;;;;17.70;15.80;;;;;;;2.73;43.85;101259.13;112960;1231;22088;-79
2022/03/06 10:18:54;;;;;;;19.20;16.80;;;;;;;2.77;43.87;101259.77;112961;1231;21968;-79
2022/03/06 10:21:36;;;;;;;20.90;16.60;;;;;;;2.78;43.78;101257.91;112792;1235;22236;-80
2022/03/06 10:24:28;;;;;;;21.90;19.20;;;;;;;2.87;43.97;101262.58;112032;1238;22201;-77
2022/03/06 10:27:13;;;;;;;23.50;18.00;;;;;;;2.91;43.65;101260.11;112292;1238;23025;-77
2022/03/06 10:29:54;;;;;;;26.90;19.40;;;;;;;2.89;43.34;101259.87;112577;1235;23577;-78
2022/03/06 10:32:50;;;;;;;20.90;18.00;;;;;;;2.88;43.34;101257.20;112442;1238;22015;-78
2022/03/06 10:35:50;;;;;;;26.50;22.10;;;;;;;2.87;43.28;101257.41;112500;1235;21954;-78
2022/03/06 10:38:38;;;;;;;24.90;21.20;;;;;;;2.83;43.10;101253.10;111552;1244;22342;-78
2022/03/06 10:41:39;;;;;;;22.00;19.40;;;;;;;2.79;43.15;101253.67;112262;1235;22076;-78
2022/03/06 10:44:23;;;;;;;21.50;17.40;;;;;;;2.77;43.08;101251.77;111552;1241;23191;-80
2022/03/06 10:47:24;;;;;;;33.60;20.50;;;;;;;2.77;43.10;101246.20;111048;1250;22495;-78
2022/03/06 10:50:06;;;;;;;26.50;18.40;;;;;;;2.77;43.12;101243.39;111426;1244;22014;-78
2022/03/06 10:52:48;;;;;;;22.00;17.20;;;;;;;2.78;43.06;101242.32;111169;1247;21980;-78
2022/03/06 10:55:36;;;;;;;22.30;18.10;;;;;;;2.76;42.97;101237.90;111249;1245;23672;-79
2022/03/06 10:58:12;;;;;;;21.00;18.40;;;;;;;2.75;43.09;101236.38;111171;1247;21969;-79
2022/03/06 11:00:49;;;;;;;22.30;18.30;;;;;;;2.76;42.99;101237.02;111363;1247;23003;-77
2022/03/06 11:03:20;;;;;;;;;;;;;;;2.73;42.77;101232.84;111264;1246;22017;-78
2022/03/06 11:05:49;;;;;;;28.70;18.60;;;;;;;2.67;42.90;101229.76;112012;1235;23676;-77
2022/03/06 11:08:25;;;;;;;23.00;18.60;;;;;;;2.67;42.97;101227.69;112238;1238;21964;-78
2022/03/06 11:11:12;;;;;;;19.10;16.80;;;;;;;2.65;42.76;101230.39;111235;1245;23593;-78
2022/03/06 11:13:43;;;;;;;23.90;16.50;;;;;;;2.68;43.03;101232.14;111064;1248;21951;-77
2022/03/06 11:16:43;;;;;;;21.80;17.60;;;;;;;2.67;42.84;101231.30;111669;1241;21965;-78
2022/03/06 11:19:37;;;;;;;;;;;;;;;;;;;;;
2022/03/06 11:23:29;;;;;;;27.50;21.40;;;;;;;2.64;42.68;101229.27;111527;1241;23808;-78
2022/03/06 11:27:25;;;;;;;24.30;19.70;;;;;;;2.61;42.76;101222.49;111109;1248;21992;-77
2022/03/06 11:30:24;;;;;;;23.10;20.70;;;;;;;2.58;42.94;101218.15;111115;1247;23026;-76
2022/03/06 11:33:10;;;;;;;26.90;23.90;;;;;;;2.55;43.08;101214.83;111456;1244;21982;-77
2022/03/06 11:35:50;;;;;;;25.60;22.20;;;;;;;2.51;43.21;101214.09;111696;1242;23564;-76
2022/03/06 11:38:21;;;;;;;27.80;20.90;;;;;;;2.49;43.47;101212.64;111589;1242;22059;-77
2022/03/06 11:41:56;;;;;;;;;;;;;;;;;;;;;
2022/03/06 11:46:09;;;;;;;24.30;21.30;;;;;;;2.45;43.64;101208.54;110529;1253;21988;-76
2022/03/06 11:49:04;;;;;;;23.00;19.80;;;;;;;2.45;43.77;101204.72;110791;1250;22055;-75
2022/03/06 11:51:33;;;;;;;23.20;20.40;;;;;;;2.44;43.73;101203.90;110900;1251;21979;-76
2022/03/06 11:54:08;;;;;;;23.80;21.30;;;;;;;2.46;43.83;101201.83;110891;1250;22905;-75
2022/03/06 11:56:38;;;;;;;24.80;21.90;;;;;;;2.51;43.92;101198.03;110489;1257;24324;-75
2022/03/06 11:59:17;;;;;;;27.30;22.00;;;;;;;2.57;43.88;101191.95;110477;1254;23026;-76
2022/03/06 12:01:49;;;;;;;28.40;22.90;;;;;;;2.56;43.83;101188.51;110635;1254;21959;-76
2022/03/06 12:04:26;;;;;;;24.20;19.30;;;;;;;2.62;44.01;101185.00;110390;1257;22347;-75
2022/03/06 12:07:02;;;;;;;23.40;19.50;;;;;;;2.71;43.93;101181.52;110001;1260;22000;-76
2022/03/06 12:09:44;;;;;;;21.50;19.20;;;;;;;2.74;43.69;101179.22;109122;1267;22763;-75
2022/03/06 12:12:39;;;;;;;20.60;17.30;;;;;;;2.76;43.69;101174.41;108842;1270;22000;-77
2022/03/06 12:15:16;;;;;;;21.00;18.60;;;;;;;2.76;43.40;101173.17;109083;1265;22002;-75